Aérodrome :
LOGIN :

S'inscrire | Disclaimer

   EN    FR    IT 

 










Légende :    VFR   VFR Marginal   IFR   IFR Intensif   IFR Très Intensif
Visi : 
Plafond : 
>= 8 km
>= 3000ft
5 à 8 km
1000 à 3000 ft
1500m à 5 km
500 à 1000 ft
800 à 1500m
200 à 500 ft
< 800m
< 200 ft
Symboles :   Orages  Brouillard  Fortes neiges  Fortes précipitations  Vent > 20 kt
SIGMETs :   Divers  Orages  Givrage  Turbulence  Onde Orograph.  Cendres Volcan.






- Altitude de l'aérodrome : 353 ft
- Code IATA : ZAG


LDZA - Zagreb Pleso

DERNIER METAR :
  • 211330Z 10007KT 040V150 CAVOK 12/M01 Q1013 BECMG 04008KT

METARs EXPIRÉS :
  • 211300Z 06006KT 360V120 CAVOK 12/M00 Q1014 NOSIG
  • 211230Z 03007KT 320V090 CAVOK 12/M02 Q1014 NOSIG
  • 211200Z 03007KT 310V100 CAVOK 12/M01 Q1014 TEMPO 03012KT
  • 211130Z 01007KT 330V070 CAVOK 11/M02 Q1014 NOSIG
  • 211100Z VRB08KT CAVOK 11/M01 Q1014 BECMG 04008KT
  • 211030Z 03008KT 330V110 CAVOK 11/M00 Q1014 TEMPO 04012KT
  • 211000Z 02007KT 320V100 9999 FEW043 11/M01 Q1015 NOSIG
  • 210930Z VRB06KT 9999 FEW043 11/00 Q1015 TEMPO 04009KT
  • 210900Z 05006KT 350V130 CAVOK 10/M01 Q1015 NOSIG

TAF TAF LDZA
Valide du 21 à 12h jusqu'au 22 à 12h UTC


211125Z 2112/2212 04006KT 9999 FEW049 TX13/2113Z TNM01/2204Z
TEMPO 2112/2115 04010KT
PROB40 2120/2205 22004KT
ATIS : +385 1 6-259-214



MET'MAP, la Météo Aéronautique d'un coup d'oeil ! - Copyright ORBIFLY Décembre 2007 - Disclaimer

ORBIFLY MET'MAP TEAM :

Programmation & Développement : Alexandra Zaïnal
Sur une idée originale de : Baudouin d'Aumeries
Soutien technique & logistique : Manuel Goepfert
Assistance : Marc-Olivier Méhu




SOURCES & CREDITS :

   NOAA